Time;durP1;ratioP1;P1;durP2;ratioP2;P2;SDS_P1;SDS_P2;PMS_P1;PMS_P2;Temp;Humidity;BMP_temperature;BMP_pressure;BME280_temperature;BME280_humidity;BME280_pressure;Samples;Min_cycle;Max_cycle;Signal;HPM_P1;HPM_P2
2022/01/05 00:01:40;;;;;;;31.00;20.88;;;;;;;-0.03;100.00;100261.37;1706206;84;21595;-82
2022/01/05 00:04:08;;;;;;;28.67;19.75;;;;;;;0.02;100.00;100270.17;1714332;82;21160;-82
2022/01/05 00:06:36;;;;;;;30.20;20.88;;;;;;;0.04;100.00;100267.58;1711692;82;21147;-83
2022/01/05 00:09:03;;;;;;;29.12;20.57;;;;;;;0.05;100.00;100259.83;1711278;82;21567;-85
2022/01/05 00:11:30;;;;;;;32.15;20.68;;;;;;;0.06;100.00;100260.65;1742659;82;21678;-85
2022/01/05 00:13:58;;;;;;;30.52;21.45;;;;;;;0.05;100.00;100253.42;1742871;82;21083;-85
2022/01/05 00:16:25;;;;;;;30.70;22.48;;;;;;;0.05;100.00;100252.58;1742384;82;21102;-85
2022/01/05 00:18:53;;;;;;;33.30;21.93;;;;;;;0.06;100.00;100250.41;1742828;82;21033;-86
2022/01/05 00:21:21;;;;;;;33.65;22.65;;;;;;;0.08;100.00;100240.95;1711451;82;21029;-84
2022/01/05 00:23:48;;;;;;;33.28;23.45;;;;;;;0.12;100.00;100233.56;1743100;82;21503;-84
2022/01/05 00:26:18;;;;;;;37.28;24.43;;;;;;;0.13;100.00;100228.80;1712186;82;21545;-85
2022/01/05 00:28:46;;;;;;;36.40;23.35;;;;;;;0.17;100.00;100222.69;1743122;82;21068;-84
2022/01/05 00:31:13;;;;;;;30.30;22.17;;;;;;;0.19;100.00;100220.05;1742540;82;21546;-85
2022/01/05 00:33:40;;;;;;;37.13;23.80;;;;;;;0.22;100.00;100218.20;1742800;82;21053;-84
2022/01/05 00:36:09;;;;;;;36.73;24.23;;;;;;;0.26;100.00;100212.09;1742704;82;21082;-85
2022/01/05 00:38:36;;;;;;;33.10;22.07;;;;;;;0.30;100.00;100208.96;1711371;82;21144;-85
2022/01/05 00:41:04;;;;;;;32.15;22.22;;;;;;;0.31;100.00;100206.80;1743028;82;21094;-84
2022/01/05 00:43:33;;;;;;;32.78;23.45;;;;;;;0.36;100.00;100204.88;1742783;82;21021;-83
2022/01/05 00:46:00;;;;;;;35.00;23.90;;;;;;;0.40;100.00;100206.87;1742898;82;21342;-84
2022/01/05 00:48:29;;;;;;;32.50;20.95;;;;;;;0.40;100.00;100200.00;1742982;82;21042;-84
2022/01/05 00:50:59;;;;;;;34.63;21.68;;;;;;;0.44;100.00;100199.00;1711109;82;21073;-84
2022/01/05 00:53:25;;;;;;;27.17;19.48;;;;;;;0.51;100.00;100192.34;1707674;82;21242;-85
2022/01/05 00:55:53;;;;;;;35.05;21.82;;;;;;;0.59;100.00;100196.29;1709633;82;21014;-84
2022/01/05 00:58:21;;;;;;;31.05;20.90;;;;;;;0.69;100.00;100184.36;1719364;83;21045;-84
2022/01/05 01:00:48;;;;;;;36.23;22.17;;;;;;;0.76;100.00;100185.34;1718855;83;21079;-84
2022/01/05 01:03:15;;;;;;;34.43;22.20;;;;;;;0.83;100.00;100182.52;1697195;83;20990;-84
2022/01/05 01:05:44;;;;;;;33.65;22.87;;;;;;;0.87;100.00;100180.22;1718764;83;21780;-84
2022/01/05 01:08:16;;;;;;;41.05;25.00;;;;;;;0.88;100.00;100178.05;1717663;82;20998;-85
2022/01/05 01:10:43;;;;;;;52.25;31.57;;;;;;;0.91;100.00;100176.19;1732562;82;21033;-84
2022/01/05 01:13:10;;;;;;;61.80;35.55;;;;;;;0.95;100.00;100175.61;1719077;83;21512;-85
2022/01/05 01:15:37;;;;;;;70.05;36.42;;;;;;;0.98;100.00;100175.92;1719149;83;21065;-85
2022/01/05 01:18:04;;;;;;;78.92;40.38;;;;;;;0.98;100.00;100174.18;1718561;83;21107;-85
2022/01/05 01:20:32;;;;;;;78.20;42.03;;;;;;;0.98;100.00;100167.77;1707428;81;21041;-85
2022/01/05 01:22:59;;;;;;;79.62;42.60;;;;;;;0.99;100.00;100171.19;1718701;83;21081;-85
2022/01/05 01:25:26;;;;;;;80.35;43.17;;;;;;;0.99;100.00;100169.91;1718511;83;21084;-86
2022/01/05 01:27:54;;;;;;;88.97;45.05;;;;;;;0.98;100.00;100166.48;1718830;82;21045;-86
2022/01/05 01:30:21;;;;;;;86.35;42.58;;;;;;;0.97;100.00;100168.66;1718767;82;21136;-85
2022/01/05 01:32:48;;;;;;;79.87;41.68;;;;;;;0.97;100.00;100167.84;1720058;83;21018;-85
2022/01/05 01:35:17;;;;;;;81.20;43.13;;;;;;;0.99;100.00;100164.77;1719863;83;21104;-85
2022/01/05 01:37:45;;;;;;;75.25;40.80;;;;;;;1.00;100.00;100172.39;1719765;82;21125;-85
2022/01/05 01:40:12;;;;;;;79.20;40.45;;;;;;;1.00;100.00;100164.70;1720294;83;21100;-86
2022/01/05 01:42:39;;;;;;;76.67;39.53;;;;;;;1.01;100.00;100170.65;1719934;83;21215;-85
2022/01/05 01:45:07;;;;;;;75.70;39.03;;;;;;;1.04;100.00;100159.80;1720382;83;21034;-86
2022/01/05 01:47:36;;;;;;;80.72;40.38;;;;;;;1.08;100.00;100147.25;1720183;83;21149;-85
2022/01/05 01:50:12;;;;;;;77.32;40.78;;;;;;;1.10;100.00;100142.05;1720188;82;21016;-85
2022/01/05 01:52:45;;;;;;;68.97;35.78;;;;;;;1.13;100.00;100144.49;1723845;82;21053;-86
2022/01/05 01:55:12;;;;;;;75.50;38.83;;;;;;;1.15;100.00;100144.42;1707904;82;21159;-86
2022/01/05 01:57:43;;;;;;;64.65;35.83;;;;;;;1.15;100.00;100146.55;1697062;82;21112;-84
2022/01/05 02:00:16;;;;;;;68.15;38.55;;;;;;;1.16;100.00;100148.19;1735080;82;21053;-85
2022/01/05 02:02:46;;;;;;;69.58;37.60;;;;;;;1.18;100.00;100145.11;1731535;82;21033;-84
2022/01/05 02:05:13;;;;;;;67.87;36.83;;;;;;;1.20;100.00;100142.50;1699474;83;21067;-86
2022/01/05 02:07:41;;;;;;;61.53;34.55;;;;;;;1.21;100.00;100138.58;1719449;82;21167;-85
2022/01/05 02:10:10;;;;;;;70.45;38.05;;;;;;;1.21;100.00;100133.88;1718864;83;21093;-86
2022/01/05 02:12:40;;;;;;;58.38;33.60;;;;;;;1.22;100.00;100142.81;1718542;83;21090;-86
2022/01/05 02:15:08;;;;;;;73.80;39.08;;;;;;;1.24;100.00;100127.34;1718622;83;21106;-85
2022/01/05 02:17:52;;;;;;;63.55;36.73;;;;;;;1.25;100.00;100129.84;1718502;83;21121;-85
2022/01/05 02:20:21;;;;;;;67.10;39.00;;;;;;;1.24;100.00;100124.31;1718402;83;21168;-84
2022/01/05 02:22:48;;;;;;;71.97;37.30;;;;;;;1.22;100.00;100118.45;1718763;83;21019;-84
2022/01/05 02:25:15;;;;;;;62.90;36.60;;;;;;;1.21;100.00;100112.93;1718457;83;21027;-84
2022/01/05 02:27:45;;;;;;;65.90;37.45;;;;;;;1.23;100.00;100111.14;1698068;83;21082;-84
2022/01/05 02:30:16;;;;;;;63.08;33.15;;;;;;;1.24;100.00;100108.92;1718461;82;21058;-84
2022/01/05 02:32:44;;;;;;;54.27;29.65;;;;;;;1.24;100.00;100112.77;1714938;83;21155;-84
2022/01/05 02:35:11;;;;;;;52.73;30.25;;;;;;;1.24;100.00;100099.13;1718697;83;21015;-84
2022/01/05 02:37:45;;;;;;;53.87;28.55;;;;;;;1.24;100.00;100093.53;1718416;83;21079;-85
2022/01/05 02:40:15;;;;;;;52.33;29.70;;;;;;;1.24;100.00;100094.00;1698022;83;21043;-84
2022/01/05 02:42:56;;;;;;;44.90;27.05;;;;;;;1.24;100.00;100089.69;1719424;83;21473;-85
2022/01/05 02:45:23;;;;;;;;;;;;;;;1.26;100.00;100080.20;1721662;83;21140;-85
2022/01/05 02:47:55;;;;;;;43.78;24.37;;;;;;;1.27;100.00;100079.77;1696393;83;20160;-84
2022/01/05 02:50:22;;;;;;;46.00;25.02;;;;;;;1.28;100.00;100074.17;1697676;83;21118;-84
2022/01/05 02:52:49;;;;;;;39.83;23.70;;;;;;;1.28;100.00;100071.61;1698191;83;21093;-83
2022/01/05 02:55:16;;;;;;;43.50;26.45;;;;;;;1.28;100.00;100060.91;1721277;82;21097;-83
2022/01/05 02:57:43;;;;;;;44.08;26.60;;;;;;;1.29;100.00;100060.45;1725574;83;21652;-83
2022/01/05 03:00:13;;;;;;;44.38;24.87;;;;;;;1.30;100.00;100056.98;1725173;83;21098;-84
2022/01/05 03:02:43;;;;;;;42.58;26.05;;;;;;;1.30;100.00;100046.73;1725040;82;21336;-84
2022/01/05 03:05:10;;;;;;;45.25;25.15;;;;;;;1.26;100.00;100041.72;1695058;82;21099;-83
2022/01/05 03:07:41;;;;;;;42.73;24.87;;;;;;;1.28;100.00;100030.56;1690734;84;21105;-84
2022/01/05 03:10:10;;;;;;;40.03;23.42;;;;;;;1.29;100.00;100030.48;1690835;84;21167;-83
2022/01/05 03:12:42;;;;;;;34.27;21.45;;;;;;;1.30;100.00;100024.92;1716613;81;21073;-83
2022/01/05 03:15:10;;;;;;;39.50;22.42;;;;;;;1.30;100.00;100027.48;1725451;81;22258;-83
2022/01/05 03:17:39;;;;;;;33.28;20.52;;;;;;;1.28;100.00;100021.16;1725490;81;21037;-84
2022/01/05 03:20:08;;;;;;;32.80;20.00;;;;;;;1.29;100.00;100024.53;1725587;81;21065;-83
2022/01/05 03:22:36;;;;;;;32.63;20.62;;;;;;;1.28;100.00;100011.33;1708915;83;21812;-83
2022/01/05 03:25:05;;;;;;;34.55;19.77;;;;;;;1.29;100.00;100009.14;1696982;83;21141;-83
2022/01/05 03:27:32;;;;;;;36.65;19.92;;;;;;;1.30;100.00;100003.94;1725220;83;21152;-82
2022/01/05 03:30:00;;;;;;;37.03;20.88;;;;;;;1.32;100.00;99998.28;1708726;83;21070;-83
2022/01/05 03:32:36;;;;;;;34.48;19.32;;;;;;;1.35;100.00;99993.46;1696581;83;21005;-84
2022/01/05 03:34:56;;;;;;;33.38;19.65;;;;;;;1.35;100.00;99988.33;1715523;83;21144;-84
2022/01/05 03:37:25;;;;;;;33.67;18.45;;;;;;;1.37;100.00;99982.22;1668516;83;21030;-84
2022/01/05 03:39:54;;;;;;;32.10;18.55;;;;;;;1.37;100.00;99975.80;1703163;82;21638;-85
2022/01/05 03:42:21;;;;;;;26.37;16.77;;;;;;;1.39;100.00;99966.77;1709919;82;21062;-84
2022/01/05 03:44:48;;;;;;;25.35;14.53;;;;;;;1.39;100.00;99962.45;1686039;83;21079;-85
2022/01/05 03:47:15;;;;;;;26.20;15.35;;;;;;;1.41;100.00;99955.96;1709992;83;21139;-84
2022/01/05 03:49:42;;;;;;;22.27;13.30;;;;;;;1.45;100.00;99955.36;1710050;83;21111;-83
2022/01/05 03:52:09;;;;;;;24.12;13.55;;;;;;;1.45;100.00;99948.52;1709721;83;21599;-83
2022/01/05 03:54:37;;;;;;;20.77;12.25;;;;;;;1.45;100.00;99953.64;1710206;83;21037;-83
2022/01/05 03:57:05;;;;;;;16.77;10.72;;;;;;;1.43;100.00;99950.78;1709954;83;21098;-83
2022/01/05 03:59:32;;;;;;;17.42;11.00;;;;;;;1.42;100.00;99947.37;1709927;83;21157;-84
2022/01/05 04:01:59;;;;;;;18.02;10.93;;;;;;;1.40;100.00;99946.63;1709779;83;21107;-84
2022/01/05 04:04:26;;;;;;;16.85;11.15;;;;;;;1.40;100.00;99937.66;1709866;83;21106;-85
2022/01/05 04:06:54;;;;;;;14.10;9.43;;;;;;;1.42;100.00;99948.65;1710011;83;21520;-85
2022/01/05 04:09:21;;;;;;;14.68;9.93;;;;;;;1.42;100.00;99955.06;1709620;83;21095;-84
2022/01/05 04:11:48;;;;;;;15.90;10.23;;;;;;;1.45;100.00;99952.80;1686417;83;21091;-84
2022/01/05 04:14:15;;;;;;;16.93;9.88;;;;;;;1.47;100.00;99949.72;1709931;83;21098;-85
2022/01/05 04:16:42;;;;;;;15.58;9.15;;;;;;;1.51;100.00;99946.93;1709936;83;21146;-84
2022/01/05 04:19:09;;;;;;;12.35;8.60;;;;;;;1.55;100.00;99944.61;1709901;83;21536;-84
2022/01/05 04:21:36;;;;;;;14.40;9.10;;;;;;;1.58;100.00;99939.31;1709884;83;21138;-85
2022/01/05 04:24:04;;;;;;;15.83;9.33;;;;;;;1.62;100.00;99923.31;1709888;83;21148;-86
2022/01/05 04:26:31;;;;;;;13.40;8.88;;;;;;;1.66;100.00;99923.55;1709881;82;21004;-85
2022/01/05 04:28:58;;;;;;;17.15;9.58;;;;;;;1.71;100.00;99916.91;1683143;83;21680;-84
2022/01/05 04:31:25;;;;;;;15.10;9.25;;;;;;;1.72;100.00;99927.09;1681195;84;21056;-84
2022/01/05 04:33:52;;;;;;;14.78;9.78;;;;;;;1.77;100.00;99938.86;1681208;84;21048;-85
2022/01/05 04:36:20;;;;;;;11.93;8.60;;;;;;;1.80;100.00;99926.73;1681193;84;21163;-85
2022/01/05 04:38:47;;;;;;;13.60;9.50;;;;;;;1.84;100.00;99918.42;1682038;84;21506;-85
2022/01/05 04:41:14;;;;;;;14.65;9.33;;;;;;;1.85;100.00;99908.06;1680999;84;21099;-84
2022/01/05 04:43:41;;;;;;;14.18;9.33;;;;;;;1.89;100.00;99906.17;1695247;83;21054;-84
2022/01/05 04:46:08;;;;;;;14.25;8.93;;;;;;;1.91;100.00;99888.95;1709426;83;21510;-84
2022/01/05 04:48:37;;;;;;;13.53;8.43;;;;;;;1.91;100.00;99886.83;1712539;82;21113;-84
2022/01/05 04:51:04;;;;;;;12.88;8.53;;;;;;;1.93;100.00;99879.88;1737375;81;21054;-84
2022/01/05 04:53:32;;;;;;;13.40;8.58;;;;;;;1.94;100.00;99884.12;1737415;81;21042;-86
2022/01/05 04:55:58;;;;;;;15.90;8.38;;;;;;;1.95;100.00;99875.51;1713060;82;21140;-83
2022/01/05 04:58:26;;;;;;;12.60;7.97;;;;;;;1.95;100.00;99853.69;1709696;82;21003;-81
2022/01/05 05:00:53;;;;;;;16.52;8.85;;;;;;;1.96;100.00;99841.22;1709721;83;21845;-87
2022/01/05 05:03:20;;;;;;;16.82;8.73;;;;;;;2.12;100.00;99832.25;1709362;83;21024;-85
2022/01/05 05:05:48;;;;;;;17.27;8.88;;;;;;;2.23;100.00;99817.11;1686524;83;21079;-86
2022/01/05 05:08:16;;;;;;;13.43;7.90;;;;;;;2.20;100.00;99815.51;1708706;83;21509;-88
2022/01/05 05:10:43;;;;;;;15.40;8.25;;;;;;;2.14;100.00;99815.84;1709920;83;21047;-87
2022/01/05 05:13:11;;;;;;;13.65;8.63;;;;;;;2.08;100.00;99800.76;1686082;83;21669;-83
2022/01/05 05:15:41;;;;;;;12.73;8.40;;;;;;;2.06;100.00;99806.42;1711151;83;21523;-85
2022/01/05 05:18:08;;;;;;;14.20;7.62;;;;;;;2.12;100.00;99811.27;1712813;82;22105;-85
2022/01/05 05:20:37;;;;;;;10.98;7.60;;;;;;;2.12;100.00;99838.23;1716925;82;21116;-84
2022/01/05 05:23:04;;;;;;;10.80;6.87;;;;;;;2.10;100.00;99852.03;1706194;83;21038;-86
2022/01/05 05:25:31;;;;;;;10.00;7.00;;;;;;;2.10;100.00;99850.75;1710579;83;21144;-87
2022/01/05 05:28:00;;;;;;;10.55;7.10;;;;;;;2.07;100.00;99845.33;1708790;82;21541;-85
2022/01/05 05:30:27;;;;;;;12.75;7.37;;;;;;;2.07;100.00;99833.77;1700267;82;20972;-84
2022/01/05 05:32:55;;;;;;;11.73;7.05;;;;;;;2.06;100.00;99806.42;1702490;82;21520;-86
2022/01/05 05:35:23;;;;;;;10.13;7.00;;;;;;;2.05;100.00;99785.50;1718453;82;21035;-86
2022/01/05 05:37:50;;;;;;;11.80;7.35;;;;;;;2.03;100.00;99774.50;1732306;81;21809;-87
2022/01/05 05:40:17;;;;;;;12.63;7.42;;;;;;;2.01;100.00;99765.58;1709375;82;21050;-86
2022/01/05 05:42:44;;;;;;;11.08;6.75;;;;;;;2.00;100.00;99765.66;1701534;83;21070;-87
2022/01/05 05:45:11;;;;;;;13.20;6.47;;;;;;;1.97;100.00;99762.81;1729806;82;21169;-85
2022/01/05 05:47:38;;;;;;;13.05;7.28;;;;;;;1.96;100.00;99773.17;1727899;81;21042;-86
2022/01/05 05:50:06;;;;;;;12.15;7.10;;;;;;;1.97;100.00;99782.50;1704932;82;21923;-85
2022/01/05 05:52:34;;;;;;;12.53;6.97;;;;;;;1.99;100.00;99817.93;1704988;83;21122;-86
2022/01/05 05:55:01;;;;;;;10.50;6.92;;;;;;;2.02;100.00;99818.59;1681412;84;21083;-85
2022/01/05 05:57:28;;;;;;;11.00;6.25;;;;;;;2.05;100.00;99819.73;1705232;83;21082;-84
2022/01/05 05:59:55;;;;;;;8.85;6.30;;;;;;;2.07;100.00;99821.40;1705397;82;21532;-85
2022/01/05 06:02:23;;;;;;;11.15;6.70;;;;;;;2.07;100.00;99817.08;1681789;83;21081;-85
2022/01/05 06:04:50;;;;;;;10.88;6.75;;;;;;;2.09;100.00;99817.83;1705077;84;21087;-85
2022/01/05 06:07:18;;;;;;;10.82;6.70;;;;;;;2.10;100.00;99800.23;1688615;83;21065;-86
2022/01/05 06:09:48;;;;;;;10.60;6.37;;;;;;;2.12;100.00;99784.73;1713537;83;21052;-85
2022/01/05 06:12:17;;;;;;;12.33;7.42;;;;;;;2.13;100.00;99794.91;1711066;83;21078;-85
2022/01/05 06:14:44;;;;;;;11.97;6.45;;;;;;;2.15;100.00;99807.70;1678624;83;21160;-85
2022/01/05 06:17:17;;;;;;;11.30;6.75;;;;;;;2.15;100.00;99796.95;1674445;84;21634;-85
2022/01/05 06:19:46;;;;;;;13.83;7.65;;;;;;;2.17;100.00;99796.42;1676121;83;21120;-87
2022/01/05 06:22:13;;;;;;;12.55;7.15;;;;;;;2.19;100.00;99778.35;1692718;82;21091;-85
2022/01/05 06:24:42;;;;;;;12.78;7.37;;;;;;;2.19;100.00;99779.64;1704506;82;21086;-83
2022/01/05 06:27:09;;;;;;;8.83;5.70;;;;;;;2.20;100.00;99775.69;1704463;83;22063;-84
2022/01/05 06:29:38;;;;;;;12.90;7.15;;;;;;;2.21;100.00;99764.98;1705109;82;21169;-85
2022/01/05 06:32:06;;;;;;;12.20;6.75;;;;;;;2.21;100.00;99771.40;1699240;82;20999;-83
2022/01/05 06:34:34;;;;;;;10.72;6.97;;;;;;;2.23;100.00;99770.88;1686813;83;21055;-84
2022/01/05 06:37:01;;;;;;;10.00;6.33;;;;;;;2.21;100.00;99759.38;1687078;83;21049;-84
2022/01/05 06:39:29;;;;;;;13.53;6.97;;;;;;;2.22;100.00;99779.48;1687098;84;21161;-84
2022/01/05 06:41:56;;;;;;;11.38;6.58;;;;;;;2.25;100.00;99772.06;1660287;82;21573;-83
2022/01/05 06:44:23;;;;;;;11.88;6.35;;;;;;;2.25;100.00;99773.34;1718299;82;21025;-83
2022/01/05 06:46:51;;;;;;;11.20;6.00;;;;;;;2.26;100.00;99768.59;1699267;82;21116;-83
2022/01/05 06:49:20;;;;;;;10.32;6.60;;;;;;;2.31;100.00;99784.57;1697300;82;21048;-84
2022/01/05 06:51:47;;;;;;;11.80;6.40;;;;;;;2.33;100.00;99794.31;1696743;82;21168;-84
2022/01/05 06:54:16;;;;;;;11.05;6.28;;;;;;;2.34;100.00;99801.94;1701101;82;21136;-84
2022/01/05 06:56:44;;;;;;;9.93;6.20;;;;;;;2.36;100.00;99819.86;1726083;81;21103;-85
2022/01/05 06:59:11;;;;;;;10.20;6.15;;;;;;;2.38;100.00;99836.00;1738799;81;21018;-84
2022/01/05 07:01:38;;;;;;;9.98;5.83;;;;;;;2.42;100.00;99834.94;1742515;81;21057;-84
2022/01/05 07:04:05;;;;;;;9.48;5.87;;;;;;;2.45;100.00;99832.19;1711814;82;21142;-84
2022/01/05 07:06:34;;;;;;;12.18;6.33;;;;;;;2.48;100.00;99834.61;1732522;82;21566;-83
2022/01/05 07:09:04;;;;;;;11.10;5.87;;;;;;;2.51;100.00;99843.89;1714601;82;21735;-84
2022/01/05 07:11:32;;;;;;;11.68;6.33;;;;;;;2.55;100.00;99847.12;1700700;82;21054;-85
2022/01/05 07:13:59;;;;;;;11.00;7.03;;;;;;;2.53;100.00;99844.17;1702580;83;21374;-85
2022/01/05 07:16:29;;;;;;;11.70;6.45;;;;;;;2.53;100.00;99844.17;1701907;83;21065;-83
2022/01/05 07:18:56;;;;;;;10.18;6.40;;;;;;;2.52;100.00;99837.84;1701776;83;21006;-83
2022/01/05 07:21:23;;;;;;;13.60;6.80;;;;;;;2.53;100.00;99839.03;1681388;84;21619;-84
2022/01/05 07:23:50;;;;;;;14.73;7.70;;;;;;;2.53;100.00;99835.17;1702164;84;21023;-84
2022/01/05 07:26:17;;;;;;;14.78;7.60;;;;;;;2.53;100.00;99835.17;1702091;83;21035;-83
2022/01/05 07:28:45;;;;;;;12.90;8.18;;;;;;;2.56;100.00;99833.36;1705525;82;21790;-84
2022/01/05 07:31:12;;;;;;;19.37;10.53;;;;;;;2.60;100.00;99831.01;1665882;84;21099;-84
2022/01/05 07:33:39;;;;;;;15.20;8.68;;;;;;;2.63;100.00;99823.95;1677662;84;21031;-83
2022/01/05 07:36:06;;;;;;;18.55;9.15;;;;;;;2.68;100.00;99799.28;1708564;83;21567;-84
2022/01/05 07:38:33;;;;;;;13.65;8.60;;;;;;;2.71;100.00;99800.38;1712624;83;21065;-85
2022/01/05 07:41:00;;;;;;;14.65;9.48;;;;;;;2.75;100.00;99803.17;1677298;84;21193;-84
2022/01/05 07:43:27;;;;;;;17.65;9.10;;;;;;;2.75;100.00;99803.17;1654454;85;21072;-83
2022/01/05 07:45:54;;;;;;;13.88;8.40;;;;;;;2.77;100.00;99802.61;1678690;83;21532;-83
2022/01/05 07:48:21;;;;;;;15.60;8.63;;;;;;;2.82;100.00;99797.20;1706671;83;21011;-83
2022/01/05 07:50:48;;;;;;;16.75;8.55;;;;;;;2.82;100.00;99797.20;1700076;82;21543;-84
2022/01/05 07:53:15;;;;;;;16.32;7.85;;;;;;;2.83;100.00;99792.00;1707245;83;21090;-83
2022/01/05 07:55:42;;;;;;;12.90;7.70;;;;;;;2.86;100.00;99796.58;1707597;84;21581;-83
2022/01/05 07:58:10;;;;;;;10.43;6.47;;;;;;;2.97;100.00;99805.82;1707502;84;21099;-83
2022/01/05 08:00:37;;;;;;;13.83;7.42;;;;;;;2.96;100.00;99808.02;1707699;82;21071;-84
2022/01/05 08:03:04;;;;;;;13.68;7.42;;;;;;;2.96;100.00;99808.02;1673569;85;21104;-82
2022/01/05 08:05:32;;;;;;;13.85;6.55;;;;;;;2.98;100.00;99808.77;1660859;84;21839;-81
2022/01/05 08:07:59;;;;;;;10.45;6.37;;;;;;;2.98;100.00;99808.77;1704389;82;21044;-83
2022/01/05 08:10:26;;;;;;;11.30;5.58;;;;;;;2.99;100.00;99813.00;1699536;83;21070;-83
2022/01/05 08:12:53;;;;;;;8.15;5.15;;;;;;;2.99;100.00;99815.10;1707283;83;21039;-84
2022/01/05 08:15:20;;;;;;;9.80;5.58;;;;;;;3.01;100.00;99812.43;1707269;84;21095;-83
2022/01/05 08:17:49;;;;;;;10.45;5.72;;;;;;;3.01;100.00;99808.58;1703210;83;21008;-84
2022/01/05 08:20:16;;;;;;;7.87;5.12;;;;;;;3.00;100.00;99801.33;1701744;83;20991;-83
2022/01/05 08:22:46;;;;;;;13.65;5.60;;;;;;;3.02;100.00;99798.66;1703166;82;21023;-83
2022/01/05 08:25:17;;;;;;;9.60;5.67;;;;;;;3.04;100.00;99786.55;1685210;83;21055;-84
2022/01/05 08:27:48;;;;;;;;;;;;;;;3.04;100.00;99786.55;1701978;84;21071;-83
2022/01/05 08:30:18;;;;;;;6.85;5.17;;;;;;;3.04;100.00;99785.73;1702238;83;21146;-83
2022/01/05 08:32:47;;;;;;;10.72;5.20;;;;;;;3.05;100.00;99777.92;1702656;83;21536;-84
2022/01/05 08:35:16;;;;;;;7.30;5.33;;;;;;;3.07;100.00;99788.11;1706282;84;21543;-83
2022/01/05 08:37:44;;;;;;;11.10;5.15;;;;;;;3.09;100.00;99792.25;1707170;82;21083;-84
2022/01/05 08:40:13;;;;;;;8.78;5.08;;;;;;;3.12;100.00;99799.80;1687618;83;21118;-83
2022/01/05 08:42:41;;;;;;;11.10;5.47;;;;;;;3.13;100.00;99801.47;1709668;83;21166;-82
2022/01/05 08:45:09;;;;;;;10.70;5.12;;;;;;;3.18;100.00;99796.50;1709559;83;21019;-84
2022/01/05 08:47:38;;;;;;;10.15;5.58;;;;;;;3.24;100.00;99795.70;1709507;83;21103;-82
2022/01/05 08:50:06;;;;;;;12.18;5.90;;;;;;;3.25;100.00;99785.78;1709556;83;21115;-82
2022/01/05 08:52:34;;;;;;;10.72;6.37;;;;;;;3.25;100.00;99785.78;1687278;83;21595;-82
2022/01/05 08:55:01;;;;;;;8.83;5.65;;;;;;;3.30;100.00;99787.62;1711627;82;21143;-82
2022/01/05 08:57:28;;;;;;;33.85;17.55;;;;;;;3.33;100.00;99790.47;1710995;82;21071;-82
2022/01/05 08:59:55;;;;;;;22.70;14.68;;;;;;;3.34;100.00;99792.12;1726542;82;21596;-82
2022/01/05 09:02:23;;;;;;;11.78;7.67;;;;;;;3.36;100.00;99782.58;1717291;82;21066;-83
2022/01/05 09:04:52;;;;;;;14.18;7.05;;;;;;;3.38;100.00;99791.05;1702903;82;21639;-84
2022/01/05 09:07:19;;;;;;;12.95;8.08;;;;;;;3.42;100.00;99791.69;1687764;83;22009;-83
2022/01/05 09:09:47;;;;;;;12.65;9.13;;;;;;;3.42;100.00;99784.78;1724050;81;21094;-83
2022/01/05 09:12:14;;;;;;;14.55;11.43;;;;;;;3.42;100.00;99782.21;1709382;83;21078;-84
2022/01/05 09:14:41;;;;;;;25.92;17.30;;;;;;;3.42;100.00;99773.20;1682681;83;21101;-84
2022/01/05 09:17:09;;;;;;;27.35;19.35;;;;;;;3.43;100.00;99771.00;1709624;83;21069;-83
2022/01/05 09:19:37;;;;;;;18.82;13.30;;;;;;;3.44;100.00;99768.80;1710864;83;21535;-85
2022/01/05 09:22:04;;;;;;;61.68;37.28;;;;;;;3.44;100.00;99757.22;1727148;82;21053;-86
2022/01/05 09:24:32;;;;;;;30.55;20.12;;;;;;;3.45;100.00;99759.32;1721237;82;21109;-86
2022/01/05 09:27:03;;;;;;;42.75;28.35;;;;;;;3.45;100.00;99758.03;1710691;82;21089;-84
2022/01/05 09:29:30;;;;;;;28.57;23.92;;;;;;;3.47;100.00;99766.06;1693552;83;20994;-82
2022/01/05 09:32:08;;;;;;;23.07;18.25;;;;;;;3.48;100.00;99756.10;1668797;82;21210;-84
2022/01/05 09:34:37;;;;;;;44.00;29.90;;;;;;;3.48;100.00;99749.67;1654659;84;21057;-83
2022/01/05 09:37:17;;;;;;;38.08;28.75;;;;;;;3.52;100.00;99746.48;1718378;83;21120;-83
2022/01/05 09:42:26;;;;;;;15.43;10.50;;;;;;;3.56;100.00;99732.49;1693729;83;21607;-85
2022/01/05 09:44:56;;;;;;;19.27;13.93;;;;;;;3.60;100.00;99735.27;1703788;82;21149;-84
2022/01/05 09:47:44;;;;;;;16.65;11.22;;;;;;;3.62;100.00;99732.59;1724815;81;21669;-85
2022/01/05 09:50:14;;;;;;;15.18;10.63;;;;;;;3.69;100.00;99738.17;1721453;83;21526;-85
2022/01/05 09:52:46;;;;;;;16.90;11.53;;;;;;;3.75;100.00;99735.25;1700924;83;21053;-83
2022/01/05 09:55:15;;;;;;;17.82;13.68;;;;;;;3.82;100.00;99724.09;1725971;82;21614;-84
2022/01/05 09:57:45;;;;;;;17.40;13.25;;;;;;;3.84;100.00;99719.69;1723838;82;21156;-84
2022/01/05 10:00:15;;;;;;;17.27;12.25;;;;;;;3.91;100.00;99713.23;1717633;82;21061;-84
2022/01/05 10:02:45;;;;;;;16.83;11.73;;;;;;;3.93;100.00;99712.69;1720564;83;21822;-84
2022/01/05 10:05:16;;;;;;;21.05;14.68;;;;;;;3.98;100.00;99710.64;1698785;83;21068;-83
2022/01/05 10:07:44;;;;;;;15.28;11.05;;;;;;;4.02;100.00;99708.70;1730861;82;21099;-84
2022/01/05 10:10:12;;;;;;;16.52;11.57;;;;;;;4.04;100.00;99697.84;1722736;82;21863;-84
2022/01/05 10:12:40;;;;;;;18.10;11.10;;;;;;;4.08;100.00;99710.92;1721055;83;21680;-83
2022/01/05 10:15:07;;;;;;;20.60;10.43;;;;;;;4.10;100.00;99704.74;1726234;82;22269;-84
2022/01/05 10:17:37;;;;;;;17.15;10.08;;;;;;;4.13;100.00;99710.16;1726590;82;21515;-83
2022/01/05 10:20:10;;;;;;;15.88;9.70;;;;;;;4.15;100.00;99703.17;1725471;81;21053;-84
2022/01/05 10:22:43;;;;;;;17.00;10.10;;;;;;;4.18;100.00;99696.98;1698960;83;21149;-86
2022/01/05 10:25:22;;;;;;;18.67;10.40;;;;;;;4.22;100.00;99684.26;1722201;83;21452;-84
2022/01/05 10:28:04;;;;;;;18.52;10.30;;;;;;;4.23;100.00;99685.92;1720698;82;21021;-83
2022/01/05 10:30:46;;;;;;;16.95;10.70;;;;;;;4.24;100.00;99673.40;1718499;83;21019;-86
2022/01/05 10:33:13;;;;;;;17.12;11.12;;;;;;;4.25;100.00;99678.92;1718491;82;21009;-86
2022/01/05 10:35:46;;;;;;;20.88;11.78;;;;;;;4.26;100.00;99682.68;1684577;83;21159;-84
2022/01/05 10:38:15;;;;;;;18.05;11.20;;;;;;;4.27;100.00;99688.68;1702285;83;21047;-85
2022/01/05 10:40:43;;;;;;;19.37;11.10;;;;;;;4.29;100.00;99696.30;1681866;83;21090;-85
2022/01/05 10:43:14;;;;;;;18.37;11.22;;;;;;;4.28;100.00;99683.89;1708743;83;21631;-84
2022/01/05 10:45:57;;;;;;;15.38;11.18;;;;;;;4.29;100.00;99692.44;1709252;83;21617;-83
2022/01/05 10:48:26;;;;;;;18.73;11.50;;;;;;;4.29;100.00;99690.67;1688574;82;21714;-85
2022/01/05 10:51:06;;;;;;;20.48;12.00;;;;;;;4.30;100.00;99691.52;1719110;82;21061;-85
2022/01/05 10:53:34;;;;;;;17.15;11.45;;;;;;;4.30;100.00;99685.89;1730542;82;21014;-85
2022/01/05 10:56:02;;;;;;;20.12;12.25;;;;;;;4.31;100.00;99678.52;1732465;82;21007;-85
2022/01/05 10:58:46;;;;;;;23.45;12.10;;;;;;;4.30;100.00;99676.05;1713888;82;21095;-93
2022/01/05 11:01:30;;;;;;;26.42;13.95;;;;;;;4.31;100.00;99670.79;1705870;83;21112;-94
2022/01/05 11:03:58;;;;;;;20.75;12.78;;;;;;;4.52;100.00;99674.22;1709536;83;21007;-89
2022/01/05 11:06:27;;;;;;;19.73;13.72;;;;;;;4.70;100.00;99694.11;1709342;82;21575;-92
2022/01/05 11:09:04;;;;;;;21.62;14.33;;;;;;;4.83;100.00;99679.47;1686109;83;21031;-91
2022/01/05 11:11:44;;;;;;;25.08;14.47;;;;;;;4.92;100.00;99684.95;1687714;83;21014;-91
2022/01/05 11:14:31;;;;;;;28.80;15.48;;;;;;;5.00;100.00;99684.81;1716529;82;21145;-81
2022/01/05 11:17:03;;;;;;;25.23;14.55;;;;;;;5.03;100.00;99688.46;1673997;83;21102;-83
2022/01/05 11:19:36;;;;;;;25.10;15.53;;;;;;;5.11;100.00;99687.12;1691659;83;21075;-85
2022/01/05 11:22:16;;;;;;;23.20;15.83;;;;;;;5.10;100.00;99682.88;1709076;83;21116;-83
2022/01/05 11:24:52;;;;;;;26.62;17.48;;;;;;;5.08;100.00;99683.47;1676953;83;21617;-83
2022/01/05 11:27:28;;;;;;;26.85;16.10;;;;;;;5.02;100.00;99678.25;1700400;83;21169;-84
2022/01/05 11:29:57;;;;;;;27.13;16.85;;;;;;;4.96;100.00;99667.06;1698744;83;21058;-83